createdAt,value
2023-09-08T00:02:13.217Z,76.06
2023-09-08T00:04:40.829Z,75.92
2023-09-08T00:07:07.290Z,76.72
2023-09-08T00:09:36.790Z,76.69
2023-09-08T00:12:03.565Z,76.31
2023-09-08T00:14:30.046Z,75.73
2023-09-08T00:16:56.522Z,76.33
2023-09-08T00:19:24.407Z,76.07
2023-09-08T00:21:51.112Z,75.82
2023-09-08T00:24:18.852Z,75.68
2023-09-08T00:26:45.746Z,76.21
2023-09-08T00:29:12.246Z,75.97
2023-09-08T00:31:38.850Z,77.56
2023-09-08T00:34:05.418Z,77.71
2023-09-08T00:36:31.906Z,77.44
2023-09-08T00:38:58.511Z,77.46
2023-09-08T00:41:25.049Z,77.49
2023-09-08T00:43:51.717Z,77.79
2023-09-08T00:46:19.107Z,77.28
2023-09-08T00:48:45.766Z,77.31
2023-09-08T00:51:12.388Z,76.85
2023-09-08T00:53:39.174Z,77.16
2023-09-08T00:56:05.960Z,77.06
2023-09-08T00:58:33.255Z,77.08
2023-09-08T01:01:00.012Z,76.83
2023-09-08T01:03:27.067Z,76.40
2023-09-08T01:05:54.024Z,76.79
2023-09-08T01:08:20.953Z,76.37
2023-09-08T01:10:47.559Z,76.60
2023-09-08T01:13:14.027Z,77.28
2023-09-08T01:15:40.658Z,77.24
2023-09-08T01:18:07.473Z,78.22
2023-09-08T01:21:03.853Z,78.21
2023-09-08T01:23:54.247Z,78.27
2023-09-08T01:26:26.277Z,78.59
2023-09-08T01:28:54.318Z,78.68
2023-09-08T01:31:21.389Z,78.76
2023-09-08T01:33:48.638Z,78.57
2023-09-08T01:36:15.499Z,79.76
2023-09-08T01:38:42.047Z,79.58
2023-09-08T01:41:08.668Z,79.79
2023-09-08T01:43:35.520Z,80.03
2023-09-08T01:46:01.984Z,79.93
2023-09-08T01:48:28.562Z,80.33
2023-09-08T01:50:55.248Z,80.20
2023-09-08T02:00:52.538Z,79.31
2023-09-08T02:03:19.076Z,79.86
2023-09-08T02:05:46.345Z,79.21
2023-09-08T02:08:13.657Z,79.10
2023-09-08T02:10:41.500Z,78.71
2023-09-08T02:13:08.058Z,78.69
2023-09-08T02:15:36.458Z,78.19
2023-09-08T02:18:03.203Z,77.98
2023-09-08T02:20:29.685Z,78.82
2023-09-08T02:22:56.293Z,78.49
2023-09-08T02:25:25.238Z,78.85
2023-09-08T02:27:51.663Z,78.68
2023-09-08T02:30:18.292Z,77.70
2023-09-08T02:32:45.041Z,78.69
2023-09-08T02:35:11.546Z,78.92
2023-09-08T02:37:38.126Z,78.66
2023-09-08T02:40:07.083Z,78.73
2023-09-08T02:42:33.648Z,78.55
2023-09-08T02:45:00.143Z,78.97
2023-09-08T02:47:26.566Z,78.92
2023-09-08T02:49:52.969Z,79.15
2023-09-08T02:52:20.851Z,78.91
2023-09-08T02:54:47.426Z,79.30
2023-09-08T02:57:13.892Z,79.24
2023-09-08T02:59:40.338Z,78.91
2023-09-08T03:02:06.843Z,78.76
2023-09-08T03:04:33.428Z,78.67
2023-09-08T03:06:59.859Z,79.47
2023-09-08T03:09:26.278Z,78.79
2023-09-08T03:11:52.709Z,78.97
2023-09-08T03:14:19.341Z,79.16
2023-09-08T03:16:45.818Z,79.31
2023-09-08T03:19:12.282Z,79.04
2023-09-08T03:21:38.700Z,79.12
2023-09-08T03:24:05.514Z,78.80
2023-09-08T03:26:31.935Z,78.98
2023-09-08T03:28:58.409Z,78.36
2023-09-08T03:31:24.933Z,78.78
2023-09-08T03:33:51.663Z,79.04
2023-09-08T03:36:18.347Z,79.23
2023-09-08T03:38:45.024Z,79.67
2023-09-08T03:41:12.129Z,79.52
2023-09-08T03:43:38.660Z,79.23
2023-09-08T03:46:05.161Z,79.12
2023-09-08T03:48:31.637Z,78.84
2023-09-08T03:50:58.094Z,78.84
2023-09-08T03:53:24.742Z,78.83
2023-09-08T03:55:51.644Z,78.86
2023-09-08T03:58:18.153Z,79.26
2023-09-08T04:00:44.589Z,79.29
2023-09-08T04:03:11.056Z,79.86
2023-09-08T04:05:37.640Z,79.92
2023-09-08T04:08:04.329Z,80.17
2023-09-08T04:10:30.740Z,79.84
2023-09-08T04:12:57.148Z,79.37
2023-09-08T04:15:23.788Z,79.26
2023-09-08T04:17:50.277Z,79.08
2023-09-08T04:20:16.888Z,79.83
2023-09-08T04:22:43.559Z,79.85
2023-09-08T04:25:11.317Z,79.48
2023-09-08T04:27:37.982Z,79.00
2023-09-08T04:30:06.285Z,79.35
2023-09-08T04:32:32.944Z,79.40
2023-09-08T04:34:59.444Z,79.36
2023-09-08T04:37:25.850Z,79.93
2023-09-08T04:39:52.287Z,80.17
2023-09-08T04:42:18.711Z,80.70
2023-09-08T04:44:47.256Z,80.61
2023-09-08T04:47:14.731Z,80.58
2023-09-08T04:49:41.422Z,80.43
2023-09-08T04:52:07.953Z,80.94
2023-09-08T04:54:34.514Z,80.08
2023-09-08T04:57:15.930Z,80.29
2023-09-08T04:59:48.443Z,79.63
2023-09-08T05:02:14.940Z,80.26
2023-09-08T05:04:41.354Z,80.93
2023-09-08T05:07:07.788Z,80.44
2023-09-08T05:09:34.958Z,80.68
2023-09-08T05:12:01.393Z,81.13
2023-09-08T05:14:27.858Z,80.17
2023-09-08T05:16:56.904Z,80.74
2023-09-08T05:19:24.163Z,80.93
2023-09-08T05:21:55.870Z,81.24
2023-09-08T05:24:22.781Z,81.39
2023-09-08T05:26:49.395Z,81.41
2023-09-08T05:29:15.806Z,81.26
2023-09-08T05:31:42.460Z,81.41
2023-09-08T05:34:08.882Z,80.96
2023-09-08T05:36:37.920Z,80.75
2023-09-08T05:39:04.809Z,80.94
2023-09-08T05:41:31.229Z,80.60
2023-09-08T05:43:57.632Z,80.25
2023-09-08T05:46:24.271Z,79.98
2023-09-08T05:48:50.773Z,80.45
2023-09-08T05:51:17.217Z,80.04
2023-09-08T05:53:43.775Z,79.81
2023-09-08T05:56:11.287Z,79.85
2023-09-08T05:58:37.892Z,79.76
2023-09-08T06:01:04.827Z,79.36
2023-09-08T06:03:31.672Z,79.27
2023-09-08T06:05:58.348Z,79.29
2023-09-08T06:08:25.605Z,79.49
2023-09-08T06:10:52.181Z,78.91
2023-09-08T06:13:18.642Z,78.82
2023-09-08T06:15:45.233Z,78.47
2023-09-08T06:18:12.673Z,78.29
2023-09-08T06:20:45.808Z,77.98
2023-09-08T06:23:12.291Z,78.03
2023-09-08T06:25:38.772Z,78.25
2023-09-08T06:28:05.413Z,77.86
2023-09-08T06:30:31.865Z,77.88
2023-09-08T06:32:58.468Z,77.48
2023-09-08T06:35:27.509Z,77.60
2023-09-08T06:37:53.957Z,77.94
2023-09-08T06:40:20.377Z,77.60
2023-09-08T06:42:46.881Z,77.18
2023-09-08T06:45:14.581Z,77.11
2023-09-08T06:47:41.272Z,76.71
2023-09-08T06:50:08.170Z,76.67
2023-09-08T06:52:34.611Z,76.87
2023-09-08T06:55:01.119Z,76.50
2023-09-08T06:57:28.228Z,76.42
2023-09-08T06:59:54.718Z,76.14
2023-09-08T07:02:21.165Z,76.27
2023-09-08T07:04:48.498Z,76.17
2023-09-08T07:07:15.021Z,75.82
2023-09-08T07:09:41.524Z,75.45
2023-09-08T07:12:07.964Z,75.31
2023-09-08T07:14:34.431Z,74.95
2023-09-08T07:17:01.160Z,74.84
2023-09-08T07:19:28.538Z,74.86
2023-09-08T07:21:55.093Z,74.58
2023-09-08T07:24:21.853Z,74.40
2023-09-08T07:26:48.683Z,74.08
2023-09-08T07:29:15.111Z,74.07
2023-09-08T07:31:41.638Z,74.07
2023-09-08T07:34:08.315Z,74.04
2023-09-08T07:36:37.360Z,74.14
2023-09-08T07:39:03.803Z,73.77
2023-09-08T07:41:30.243Z,73.35
2023-09-08T07:43:56.798Z,73.77
2023-09-08T07:46:23.508Z,73.98
2023-09-08T07:48:50.946Z,73.71
2023-09-08T07:51:17.394Z,73.64
2023-09-08T07:53:43.854Z,73.46
2023-09-08T07:56:11.668Z,73.81
2023-09-08T07:58:39.883Z,73.85
2023-09-08T08:01:06.378Z,73.68
2023-09-08T08:03:32.890Z,72.98
2023-09-08T08:05:59.827Z,72.05
2023-09-08T08:08:26.392Z,72.06
2023-09-08T08:10:52.866Z,71.70
2023-09-08T08:13:19.354Z,72.08
2023-09-08T08:15:49.416Z,71.58
2023-09-08T08:18:16.318Z,71.56
2023-09-08T08:20:42.897Z,71.24
2023-09-08T08:23:09.358Z,71.05
2023-09-08T08:25:35.849Z,70.73
2023-09-08T08:28:02.588Z,70.64
2023-09-08T08:30:29.509Z,70.29
2023-09-08T08:32:56.249Z,70.44
2023-09-08T08:35:22.772Z,70.41
2023-09-08T08:37:49.283Z,69.90
2023-09-08T08:40:15.708Z,69.82
2023-09-08T08:42:43.332Z,69.56
2023-09-08T08:45:10.258Z,69.01
2023-09-08T08:47:37.178Z,68.52
2023-09-08T08:50:05.484Z,68.30
2023-09-08T08:52:32.120Z,68.03
2023-09-08T08:54:59.038Z,67.36
2023-09-08T08:57:28.599Z,67.44
2023-09-08T08:59:55.185Z,66.65
2023-09-08T09:02:23.009Z,66.22
2023-09-08T09:04:50.091Z,66.33
2023-09-08T09:07:19.519Z,66.23
2023-09-08T09:09:46.409Z,65.88
2023-09-08T09:12:13.070Z,65.97
2023-09-08T09:14:39.558Z,65.92
2023-09-08T09:17:06.592Z,65.41
2023-09-08T09:19:34.207Z,64.28
2023-09-08T09:22:00.787Z,64.39
2023-09-08T09:24:38.090Z,64.60
2023-09-08T09:27:06.812Z,64.02
2023-09-08T09:29:35.750Z,63.52
2023-09-08T09:32:09.130Z,63.45
2023-09-08T09:34:36.023Z,63.28
2023-09-08T09:37:02.636Z,62.58
2023-09-08T09:39:29.382Z,61.82
2023-09-08T09:41:57.592Z,61.51
2023-09-08T09:44:25.261Z,61.10
2023-09-08T09:46:55.370Z,58.88
2023-09-08T09:49:22.039Z,56.57
2023-09-08T09:51:50.465Z,54.91
2023-09-08T09:54:17.568Z,52.38
2023-09-08T09:56:46.789Z,52.94
2023-09-08T09:59:14.852Z,52.39
2023-09-08T10:01:43.475Z,51.34
2023-09-08T10:04:10.563Z,51.64
2023-09-08T10:06:39.162Z,50.26
2023-09-08T10:09:14.203Z,47.99
2023-09-08T10:11:45.776Z,46.44
2023-09-08T10:14:14.109Z,45.34
2023-09-08T10:16:44.042Z,47.03
2023-09-08T10:19:11.869Z,48.09
2023-09-08T10:21:42.831Z,47.80
2023-09-08T10:24:15.990Z,47.72
2023-09-08T10:26:45.767Z,47.43
2023-09-08T10:29:13.346Z,47.66
2023-09-08T10:31:40.669Z,47.09
2023-09-08T10:34:07.938Z,45.98
2023-09-08T10:36:36.935Z,45.72
2023-09-08T10:39:43.082Z,45.50
2023-09-08T10:42:21.944Z,44.83
2023-09-08T10:44:48.352Z,44.78
2023-09-08T10:47:15.824Z,44.61
2023-09-08T10:49:42.245Z,44.81
2023-09-08T10:52:10.350Z,44.50
2023-09-08T10:54:49.160Z,44.21
2023-09-08T10:57:20.970Z,43.88
2023-09-08T11:00:02.173Z,44.43
2023-09-08T11:02:52.056Z,44.80
2023-09-08T11:05:20.935Z,44.29
2023-09-08T11:07:50.752Z,43.67
2023-09-08T11:10:17.242Z,44.39
2023-09-08T11:12:43.850Z,43.84
2023-09-08T11:15:10.717Z,43.78
2023-09-08T11:17:40.647Z,43.17
2023-09-08T11:20:10.158Z,43.54
2023-09-08T11:22:38.469Z,44.20
2023-09-08T11:25:07.959Z,44.10
2023-09-08T11:27:34.929Z,43.55
2023-09-08T11:30:01.830Z,42.08
2023-09-08T11:32:35.291Z,42.88
2023-09-08T11:35:10.445Z,42.84
2023-09-08T11:37:43.284Z,42.30
2023-09-08T11:40:13.215Z,41.70
2023-09-08T11:42:45.726Z,41.23
2023-09-08T11:45:19.241Z,41.42
2023-09-08T11:47:46.116Z,41.94
2023-09-08T11:50:16.476Z,42.44
2023-09-08T11:52:45.340Z,41.49
2023-09-08T11:55:13.004Z,41.80
2023-09-08T11:57:41.315Z,42.69
2023-09-08T12:00:10.830Z,42.76
2023-09-08T12:02:38.450Z,41.75
2023-09-08T12:05:05.466Z,42.29
2023-09-08T12:07:32.298Z,42.93
2023-09-08T12:10:00.187Z,42.48
2023-09-08T12:12:27.952Z,41.11
2023-09-08T12:14:54.505Z,40.99
2023-09-08T12:17:25.669Z,40.52
2023-09-08T12:19:53.008Z,41.31
2023-09-08T12:22:23.613Z,41.56
2023-09-08T12:25:00.011Z,40.13
2023-09-08T12:27:27.284Z,40.94
2023-09-08T12:29:59.087Z,41.68
2023-09-08T12:32:26.879Z,41.96
2023-09-08T12:34:53.718Z,42.31
2023-09-08T12:37:24.748Z,42.34
2023-09-08T12:39:51.832Z,41.30
2023-09-08T12:42:19.396Z,41.32
2023-09-08T12:44:45.863Z,41.72
2023-09-08T12:47:15.586Z,41.83
2023-09-08T12:49:42.138Z,40.87
2023-09-08T12:52:08.679Z,41.11
2023-09-08T12:54:35.153Z,40.88
2023-09-08T12:57:03.007Z,40.71
2023-09-08T12:59:30.721Z,40.64
2023-09-08T13:01:57.492Z,40.37
2023-09-08T13:04:24.017Z,39.60
2023-09-08T13:06:50.686Z,39.16
2023-09-08T13:09:17.238Z,39.67
2023-09-08T13:11:44.028Z,39.34
2023-09-08T13:14:10.492Z,39.37
2023-09-08T13:16:37.022Z,38.84
2023-09-08T13:19:04.979Z,39.37
2023-09-08T13:21:31.720Z,39.17
2023-09-08T13:23:58.370Z,38.79
2023-09-08T13:26:24.890Z,38.25
2023-09-08T13:28:51.369Z,38.52
2023-09-08T13:31:18.043Z,39.10
2023-09-08T13:33:44.670Z,38.34
2023-09-08T13:36:11.085Z,38.12
2023-09-08T13:38:38.140Z,39.08
2023-09-08T13:41:05.164Z,37.77
2023-09-08T13:43:31.563Z,38.32
2023-09-08T13:45:58.100Z,37.58
2023-09-08T13:48:25.890Z,37.36
2023-09-08T13:50:54.356Z,37.48
2023-09-08T13:53:21.548Z,37.17
2023-09-08T13:55:51.521Z,37.24
2023-09-08T13:58:20.732Z,37.10
2023-09-08T14:03:21.840Z,37.16
2023-09-08T14:05:53.888Z,36.79
2023-09-08T14:08:39.266Z,36.85
2023-09-08T14:11:15.156Z,36.60
2023-09-08T14:13:44.115Z,36.60
2023-09-08T14:16:11.842Z,36.15
2023-09-08T14:18:38.257Z,34.86
2023-09-08T14:21:05.123Z,34.29
2023-09-08T14:23:32.192Z,34.58
2023-09-08T14:25:58.729Z,34.31
2023-09-08T14:28:25.297Z,35.50
2023-09-08T14:30:52.170Z,35.17
2023-09-08T14:33:18.850Z,34.98
2023-09-08T14:35:46.976Z,34.46
2023-09-08T14:38:14.282Z,33.85
2023-09-08T14:40:40.699Z,33.89
2023-09-08T14:43:07.128Z,33.96
2023-09-08T14:45:33.582Z,33.58
2023-09-08T14:48:01.895Z,34.35
2023-09-08T14:50:28.619Z,33.58
2023-09-08T14:52:55.442Z,32.94
2023-09-08T14:55:21.843Z,33.20
2023-09-08T14:57:48.304Z,33.43
2023-09-08T15:00:15.533Z,33.96
2023-09-08T15:02:42.089Z,33.80
2023-09-08T15:05:09.712Z,34.43
2023-09-08T15:07:36.160Z,33.33
2023-09-08T15:10:02.826Z,33.13
2023-09-08T15:12:29.424Z,32.53
2023-09-08T15:14:57.033Z,32.29
2023-09-08T15:17:23.455Z,32.26
2023-09-08T15:19:49.937Z,32.38
2023-09-08T15:22:16.374Z,31.97
2023-09-08T15:24:42.792Z,32.64
2023-09-08T15:27:09.336Z,32.47
2023-09-08T15:29:35.821Z,32.48
2023-09-08T15:32:02.329Z,32.84
2023-09-08T15:34:29.349Z,32.64
2023-09-08T15:36:56.100Z,32.78
2023-09-08T15:39:22.597Z,32.58
2023-09-08T15:41:49.045Z,32.76
2023-09-08T15:44:15.786Z,32.16
2023-09-08T15:46:42.430Z,32.32
2023-09-08T15:49:08.985Z,32.31
2023-09-08T15:51:35.489Z,32.38
2023-09-08T15:54:01.967Z,32.84
2023-09-08T15:56:28.410Z,32.51
2023-09-08T15:58:54.867Z,33.22
2023-09-08T16:01:21.352Z,32.46
2023-09-08T16:03:47.970Z,32.52
2023-09-08T16:06:14.590Z,32.81
2023-09-08T16:08:41.284Z,32.21
2023-09-08T16:11:07.701Z,32.79
2023-09-08T16:13:34.448Z,40.88
2023-09-08T16:16:01.356Z,38.28
2023-09-08T16:18:27.875Z,34.96
2023-09-08T16:20:54.314Z,33.63
2023-09-08T16:23:21.433Z,33.82
2023-09-08T16:25:47.956Z,33.66
2023-09-08T16:28:14.406Z,33.38
2023-09-08T16:30:40.930Z,33.44
2023-09-08T16:33:07.482Z,33.61
2023-09-08T16:35:34.927Z,33.11
2023-09-08T16:38:01.343Z,33.66
2023-09-08T16:40:27.812Z,33.97
2023-09-08T16:42:54.517Z,33.28
2023-09-08T16:45:20.967Z,32.96
2023-09-08T16:47:47.418Z,33.73
2023-09-08T16:50:13.937Z,33.86
2023-09-08T16:52:40.424Z,34.67
2023-09-08T16:55:12.167Z,33.90
2023-09-08T16:57:42.167Z,34.53
2023-09-08T17:00:09.559Z,34.26
2023-09-08T17:02:36.997Z,34.73
2023-09-08T17:05:04.087Z,36.15
2023-09-08T17:07:30.509Z,35.51
2023-09-08T17:09:57.070Z,35.75
2023-09-08T17:12:23.601Z,35.93
2023-09-08T17:14:50.042Z,36.79
2023-09-08T17:17:16.751Z,37.17
2023-09-08T17:19:43.165Z,37.26
2023-09-08T17:22:11.125Z,37.93
2023-09-08T17:24:37.557Z,38.24
2023-09-08T17:27:04.361Z,39.43
2023-09-08T17:29:32.200Z,40.31
2023-09-08T17:31:59.712Z,41.07
2023-09-08T17:34:26.600Z,41.55
2023-09-08T17:36:56.866Z,42.16
2023-09-08T17:39:24.557Z,42.83
2023-09-08T17:41:51.426Z,42.99
2023-09-08T17:44:18.677Z,43.32
2023-09-08T17:46:45.640Z,43.68
2023-09-08T17:49:12.157Z,44.18
2023-09-08T17:51:38.567Z,44.22
2023-09-08T17:54:05.124Z,44.59
2023-09-08T17:56:31.571Z,44.70
2023-09-08T17:58:57.969Z,45.67
2023-09-08T18:01:24.494Z,45.52
2023-09-08T18:03:51.118Z,45.85
2023-09-08T18:06:17.636Z,45.97
2023-09-08T18:08:44.779Z,46.76
2023-09-08T18:11:11.348Z,46.72
2023-09-08T18:13:39.580Z,48.18
2023-09-08T18:16:06.759Z,47.38
2023-09-08T18:18:33.911Z,47.97
2023-09-08T18:21:00.407Z,47.82
2023-09-08T18:23:26.808Z,48.76
2023-09-08T18:25:55.511Z,48.53
2023-09-08T18:28:22.279Z,48.56
2023-09-08T18:30:48.743Z,49.10
2023-09-08T18:33:15.244Z,50.10
2023-09-08T18:35:42.671Z,49.38
2023-09-08T18:38:10.035Z,49.88
2023-09-08T18:40:36.739Z,49.91
2023-09-08T18:43:03.783Z,50.45
2023-09-08T18:45:30.243Z,50.41
2023-09-08T18:47:56.688Z,50.58
2023-09-08T18:50:23.189Z,50.46
2023-09-08T18:52:49.692Z,51.00
2023-09-08T18:55:16.364Z,51.36
2023-09-08T18:57:42.774Z,51.70
2023-09-08T19:00:09.684Z,52.41
2023-09-08T19:02:39.543Z,52.10
2023-09-08T19:05:07.450Z,52.01
2023-09-08T19:07:34.156Z,51.66
2023-09-08T19:10:02.053Z,52.03
2023-09-08T19:12:28.569Z,52.64
2023-09-08T19:14:56.131Z,53.45
2023-09-08T19:17:22.662Z,53.17
2023-09-08T19:19:49.134Z,53.97
2023-09-08T19:22:15.735Z,54.04
2023-09-08T19:24:53.401Z,54.52
2023-09-08T19:27:19.956Z,54.06
2023-09-08T19:29:50.280Z,53.94
2023-09-08T19:32:17.307Z,54.19
2023-09-08T19:34:43.735Z,54.25
2023-09-08T19:37:10.229Z,54.59
2023-09-08T19:39:36.717Z,55.49
2023-09-08T19:42:03.385Z,55.82
2023-09-08T19:44:29.781Z,55.88
2023-09-08T19:46:56.194Z,56.01
2023-09-08T19:49:22.661Z,57.06
2023-09-08T19:51:49.073Z,56.41
2023-09-08T19:54:15.486Z,57.40
2023-09-08T19:56:41.908Z,57.27
2023-09-08T19:59:08.461Z,57.26
2023-09-08T20:01:35.713Z,57.85
2023-09-08T20:04:02.444Z,58.22
2023-09-08T20:06:28.956Z,58.41
2023-09-08T20:08:55.382Z,58.71
2023-09-08T20:11:21.817Z,58.81
2023-09-08T20:13:48.301Z,59.59
2023-09-08T20:16:14.822Z,58.96
2023-09-08T20:18:41.380Z,58.91
2023-09-08T20:21:07.912Z,59.75
2023-09-08T20:23:35.521Z,60.55
2023-09-08T20:26:03.019Z,60.88
2023-09-08T20:28:29.529Z,61.75
2023-09-08T20:33:25.308Z,61.31
2023-09-08T20:35:51.941Z,61.51
2023-09-08T20:38:18.426Z,61.82
2023-09-08T20:40:52.296Z,60.80
2023-09-08T20:43:26.020Z,61.12
2023-09-08T20:45:56.924Z,60.98
2023-09-08T20:48:23.781Z,60.60
2023-09-08T20:50:59.197Z,61.26
2023-09-08T20:53:25.627Z,61.34
2023-09-08T20:55:52.057Z,62.01
2023-09-08T20:58:18.490Z,62.28
2023-09-08T21:00:45.020Z,62.48
2023-09-08T21:03:11.704Z,61.99
2023-09-08T21:05:38.183Z,62.44
2023-09-08T21:08:04.902Z,63.21
2023-09-08T21:10:33.105Z,63.32
2023-09-08T21:12:59.574Z,64.23
2023-09-08T21:15:26.167Z,64.22
2023-09-08T21:17:52.848Z,64.57
2023-09-08T21:20:19.378Z,64.69
2023-09-08T21:22:45.837Z,65.03
2023-09-08T21:25:12.251Z,65.55
2023-09-08T21:27:38.737Z,64.79
2023-09-08T21:30:05.861Z,64.98
2023-09-08T21:32:32.381Z,64.95
2023-09-08T21:34:58.823Z,65.60
2023-09-08T21:37:25.259Z,65.67
2023-09-08T21:39:51.759Z,66.42
2023-09-08T21:42:18.187Z,66.16
2023-09-08T21:44:44.616Z,65.90
2023-09-08T21:47:11.060Z,66.28
2023-09-08T21:49:37.556Z,66.47
2023-09-08T21:52:04.310Z,66.55
2023-09-08T21:54:30.719Z,67.20
2023-09-08T21:56:57.495Z,67.13
2023-09-08T21:59:23.940Z,67.73
2023-09-08T22:01:50.538Z,68.09
2023-09-08T22:04:17.048Z,67.80
2023-09-08T22:06:43.853Z,68.75
2023-09-08T22:09:10.296Z,68.82
2023-09-08T22:11:36.793Z,68.16
2023-09-08T22:14:03.655Z,69.28
2023-09-08T22:16:30.186Z,68.95
2023-09-08T22:18:57.039Z,69.46
2023-09-08T22:21:23.574Z,69.85
2023-09-08T22:23:51.686Z,69.97
2023-09-08T22:26:19.543Z,70.09
2023-09-08T22:28:49.538Z,69.59
2023-09-08T22:31:16.276Z,69.60
2023-09-08T22:33:43.661Z,69.90
2023-09-08T22:36:10.550Z,70.65
2023-09-08T22:38:37.098Z,71.59
2023-09-08T22:41:03.806Z,67.46
2023-09-08T22:43:30.277Z,65.87
2023-09-08T22:45:56.774Z,67.68
2023-09-08T22:48:23.488Z,68.07
2023-09-08T22:50:51.473Z,69.69
2023-09-08T22:53:18.671Z,70.87
2023-09-08T22:55:45.525Z,70.37
2023-09-08T22:58:14.796Z,70.67
2023-09-08T23:00:41.734Z,72.27
2023-09-08T23:03:09.700Z,73.45
2023-09-08T23:05:36.401Z,73.07
2023-09-08T23:08:03.125Z,73.00
2023-09-08T23:10:29.708Z,72.73
2023-09-08T23:12:56.667Z,73.22
2023-09-08T23:15:25.783Z,73.29
2023-09-08T23:17:52.365Z,73.52
2023-09-08T23:20:18.802Z,73.21
2023-09-08T23:22:45.500Z,73.58
2023-09-08T23:25:12.121Z,73.41
2023-09-08T23:27:38.813Z,74.28
2023-09-08T23:30:06.757Z,73.83
2023-09-08T23:32:33.317Z,73.92
2023-09-08T23:35:00.035Z,74.09
2023-09-08T23:37:26.761Z,73.68
2023-09-08T23:39:53.249Z,73.53
2023-09-08T23:42:20.365Z,74.77
2023-09-08T23:44:46.900Z,74.23
2023-09-08T23:47:13.813Z,74.54
2023-09-08T23:49:40.424Z,74.82
2023-09-08T23:52:07.023Z,74.37
2023-09-08T23:54:33.479Z,75.09
2023-09-08T23:57:00.719Z,74.98
2023-09-08T23:59:27.344Z,74.80
